sensor_id;sensor_type;location;lat;lon;timestamp;P1;durP1;ratioP1;P2;durP2;ratioP2
70725;SDS011;58304;53.104;6.022;2022-08-01T00:01:38;5.65;;;3.08;;
70725;SDS011;58304;53.104;6.022;2022-08-01T00:04:04;4.70;;;2.85;;
70725;SDS011;58304;53.104;6.022;2022-08-01T00:06:30;7.53;;;3.10;;
70725;SDS011;58304;53.104;6.022;2022-08-01T00:08:55;5.00;;;3.20;;
70725;SDS011;58304;53.104;6.022;2022-08-01T00:11:21;4.57;;;2.80;;
70725;SDS011;58304;53.104;6.022;2022-08-01T00:13:47;6.85;;;3.05;;
70725;SDS011;58304;53.104;6.022;2022-08-01T00:16:14;5.18;;;3.00;;
70725;SDS011;58304;53.104;6.022;2022-08-01T00:18:43;5.45;;;2.90;;
70725;SDS011;58304;53.104;6.022;2022-08-01T00:21:09;5.68;;;3.70;;
70725;SDS011;58304;53.104;6.022;2022-08-01T00:23:35;7.20;;;2.67;;
70725;SDS011;58304;53.104;6.022;2022-08-01T00:26:01;5.90;;;2.80;;
70725;SDS011;58304;53.104;6.022;2022-08-01T00:28:27;6.70;;;2.50;;
70725;SDS011;58304;53.104;6.022;2022-08-01T00:30:52;6.35;;;3.05;;
70725;SDS011;58304;53.104;6.022;2022-08-01T00:33:18;3.97;;;2.70;;
70725;SDS011;58304;53.104;6.022;2022-08-01T00:35:46;4.60;;;2.80;;
70725;SDS011;58304;53.104;6.022;2022-08-01T00:38:11;6.35;;;2.50;;
70725;SDS011;58304;53.104;6.022;2022-08-01T00:40:37;5.60;;;2.92;;
70725;SDS011;58304;53.104;6.022;2022-08-01T00:43:03;4.50;;;2.92;;
70725;SDS011;58304;53.104;6.022;2022-08-01T00:45:29;5.05;;;2.60;;
70725;SDS011;58304;53.104;6.022;2022-08-01T00:47:54;4.50;;;2.67;;
70725;SDS011;58304;53.104;6.022;2022-08-01T00:50:20;5.07;;;2.90;;
70725;SDS011;58304;53.104;6.022;2022-08-01T00:52:46;3.75;;;2.50;;
70725;SDS011;58304;53.104;6.022;2022-08-01T00:55:12;5.93;;;2.67;;
70725;SDS011;58304;53.104;6.022;2022-08-01T00:57:38;8.05;;;3.00;;
70725;SDS011;58304;53.104;6.022;2022-08-01T01:00:05;7.95;;;2.88;;
70725;SDS011;58304;53.104;6.022;2022-08-01T01:02:32;6.88;;;2.70;;
70725;SDS011;58304;53.104;6.022;2022-08-01T01:04:58;5.43;;;2.80;;
70725;SDS011;58304;53.104;6.022;2022-08-01T01:10:16;6.20;;;2.50;;
70725;SDS011;58304;53.104;6.022;2022-08-01T01:12:55;4.68;;;2.70;;
70725;SDS011;58304;53.104;6.022;2022-08-01T01:15:35;6.07;;;2.30;;
70725;SDS011;58304;53.104;6.022;2022-08-01T01:18:11;4.72;;;2.08;;
70725;SDS011;58304;53.104;6.022;2022-08-01T01:21:13;3.78;;;1.67;;
70725;SDS011;58304;53.104;6.022;2022-08-01T01:27:26;2.90;;;1.52;;
70725;SDS011;58304;53.104;6.022;2022-08-01T01:32:12;3.33;;;1.70;;
70725;SDS011;58304;53.104;6.022;2022-08-01T01:34:43;4.53;;;1.60;;
70725;SDS011;58304;53.104;6.022;2022-08-01T01:37:14;3.55;;;1.55;;
70725;SDS011;58304;53.104;6.022;2022-08-01T01:39:42;4.80;;;1.42;;
70725;SDS011;58304;53.104;6.022;2022-08-01T01:42:09;3.08;;;1.20;;
70725;SDS011;58304;53.104;6.022;2022-08-01T01:44:36;5.47;;;1.10;;
70725;SDS011;58304;53.104;6.022;2022-08-01T01:47:02;2.97;;;1.15;;
70725;SDS011;58304;53.104;6.022;2022-08-01T01:49:29;3.03;;;1.35;;
70725;SDS011;58304;53.104;6.022;2022-08-01T01:51:57;6.60;;;1.75;;
70725;SDS011;58304;53.104;6.022;2022-08-01T01:54:24;4.22;;;1.40;;
70725;SDS011;58304;53.104;6.022;2022-08-01T01:56:58;3.67;;;1.17;;
70725;SDS011;58304;53.104;6.022;2022-08-01T01:59:28;4.53;;;1.40;;
70725;SDS011;58304;53.104;6.022;2022-08-01T02:01:57;3.15;;;1.60;;
70725;SDS011;58304;53.104;6.022;2022-08-01T02:04:26;4.07;;;1.60;;
70725;SDS011;58304;53.104;6.022;2022-08-01T02:06:53;4.55;;;1.50;;
70725;SDS011;58304;53.104;6.022;2022-08-01T02:09:20;5.30;;;1.50;;
70725;SDS011;58304;53.104;6.022;2022-08-01T02:11:47;6.15;;;1.38;;
70725;SDS011;58304;53.104;6.022;2022-08-01T02:14:14;3.85;;;1.30;;
70725;SDS011;58304;53.104;6.022;2022-08-01T02:16:41;4.47;;;1.30;;
70725;SDS011;58304;53.104;6.022;2022-08-01T02:19:09;5.40;;;1.73;;
70725;SDS011;58304;53.104;6.022;2022-08-01T02:21:40;8.60;;;1.60;;
70725;SDS011;58304;53.104;6.022;2022-08-01T02:26:52;4.43;;;1.65;;
70725;SDS011;58304;53.104;6.022;2022-08-01T02:29:21;5.70;;;1.50;;
70725;SDS011;58304;53.104;6.022;2022-08-01T02:31:53;4.75;;;1.50;;
70725;SDS011;58304;53.104;6.022;2022-08-01T02:34:20;5.65;;;1.63;;
70725;SDS011;58304;53.104;6.022;2022-08-01T02:36:48;5.07;;;1.55;;
70725;SDS011;58304;53.104;6.022;2022-08-01T02:39:17;6.40;;;1.55;;
70725;SDS011;58304;53.104;6.022;2022-08-01T02:41:47;4.28;;;1.50;;
70725;SDS011;58304;53.104;6.022;2022-08-01T02:44:16;5.60;;;1.42;;
70725;SDS011;58304;53.104;6.022;2022-08-01T02:46:56;6.93;;;1.85;;
70725;SDS011;58304;53.104;6.022;2022-08-01T02:49:27;7.45;;;1.80;;
70725;SDS011;58304;53.104;6.022;2022-08-01T02:52:04;5.70;;;1.70;;
70725;SDS011;58304;53.104;6.022;2022-08-01T02:54:32;5.93;;;1.70;;
70725;SDS011;58304;53.104;6.022;2022-08-01T02:56:58;4.72;;;1.80;;
70725;SDS011;58304;53.104;6.022;2022-08-01T02:59:26;7.43;;;2.08;;
70725;SDS011;58304;53.104;6.022;2022-08-01T03:01:55;7.28;;;2.10;;
70725;SDS011;58304;53.104;6.022;2022-08-01T03:04:22;5.57;;;2.00;;
70725;SDS011;58304;53.104;6.022;2022-08-01T03:06:48;6.20;;;2.00;;
70725;SDS011;58304;53.104;6.022;2022-08-01T03:09:16;6.53;;;1.80;;
70725;SDS011;58304;53.104;6.022;2022-08-01T03:11:45;5.88;;;1.70;;
70725;SDS011;58304;53.104;6.022;2022-08-01T03:14:13;6.70;;;1.92;;
70725;SDS011;58304;53.104;6.022;2022-08-01T03:16:41;5.28;;;1.90;;
70725;SDS011;58304;53.104;6.022;2022-08-01T03:19:11;8.82;;;2.00;;
70725;SDS011;58304;53.104;6.022;2022-08-01T03:21:39;4.20;;;1.55;;
70725;SDS011;58304;53.104;6.022;2022-08-01T03:24:06;5.18;;;1.92;;
70725;SDS011;58304;53.104;6.022;2022-08-01T03:26:35;6.72;;;1.98;;
70725;SDS011;58304;53.104;6.022;2022-08-01T03:29:06;6.70;;;1.70;;
70725;SDS011;58304;53.104;6.022;2022-08-01T03:31:37;5.47;;;1.83;;
70725;SDS011;58304;53.104;6.022;2022-08-01T03:34:07;6.70;;;2.03;;
70725;SDS011;58304;53.104;6.022;2022-08-01T03:36:33;8.90;;;2.20;;
70725;SDS011;58304;53.104;6.022;2022-08-01T03:39:13;6.15;;;2.10;;
70725;SDS011;58304;53.104;6.022;2022-08-01T03:41:41;7.03;;;2.15;;
70725;SDS011;58304;53.104;6.022;2022-08-01T03:44:14;10.35;;;2.50;;
70725;SDS011;58304;53.104;6.022;2022-08-01T03:46:54;4.45;;;2.05;;
70725;SDS011;58304;53.104;6.022;2022-08-01T03:49:25;7.97;;;2.33;;
70725;SDS011;58304;53.104;6.022;2022-08-01T03:51:55;10.15;;;2.33;;
70725;SDS011;58304;53.104;6.022;2022-08-01T03:54:23;8.65;;;2.20;;
70725;SDS011;58304;53.104;6.022;2022-08-01T03:56:50;11.95;;;2.17;;
70725;SDS011;58304;53.104;6.022;2022-08-01T03:59:18;11.25;;;2.72;;
70725;SDS011;58304;53.104;6.022;2022-08-01T04:01:45;8.10;;;2.08;;
70725;SDS011;58304;53.104;6.022;2022-08-01T04:04:12;12.15;;;2.58;;
70725;SDS011;58304;53.104;6.022;2022-08-01T04:06:39;10.88;;;2.40;;
70725;SDS011;58304;53.104;6.022;2022-08-01T04:09:09;12.27;;;2.80;;
70725;SDS011;58304;53.104;6.022;2022-08-01T04:11:35;10.15;;;2.20;;
70725;SDS011;58304;53.104;6.022;2022-08-01T04:14:00;9.40;;;2.15;;
70725;SDS011;58304;53.104;6.022;2022-08-01T04:16:26;8.70;;;2.10;;
70725;SDS011;58304;53.104;6.022;2022-08-01T04:18:52;10.05;;;2.10;;
70725;SDS011;58304;53.104;6.022;2022-08-01T04:21:18;8.05;;;2.00;;
70725;SDS011;58304;53.104;6.022;2022-08-01T04:23:48;7.25;;;2.00;;
70725;SDS011;58304;53.104;6.022;2022-08-01T04:26:16;10.05;;;2.30;;
70725;SDS011;58304;53.104;6.022;2022-08-01T04:28:43;10.13;;;2.25;;
70725;SDS011;58304;53.104;6.022;2022-08-01T04:31:12;12.98;;;2.00;;
70725;SDS011;58304;53.104;6.022;2022-08-01T04:33:41;10.15;;;2.03;;
70725;SDS011;58304;53.104;6.022;2022-08-01T04:36:10;6.15;;;2.13;;
70725;SDS011;58304;53.104;6.022;2022-08-01T04:38:38;8.50;;;1.90;;
70725;SDS011;58304;53.104;6.022;2022-08-01T04:41:07;11.65;;;2.08;;
70725;SDS011;58304;53.104;6.022;2022-08-01T04:43:39;7.00;;;1.63;;
70725;SDS011;58304;53.104;6.022;2022-08-01T04:46:06;10.40;;;2.25;;
70725;SDS011;58304;53.104;6.022;2022-08-01T04:48:33;10.75;;;2.05;;
70725;SDS011;58304;53.104;6.022;2022-08-01T04:51:01;11.85;;;2.30;;
70725;SDS011;58304;53.104;6.022;2022-08-01T04:53:27;9.07;;;2.08;;
70725;SDS011;58304;53.104;6.022;2022-08-01T04:55:53;12.18;;;2.15;;
70725;SDS011;58304;53.104;6.022;2022-08-01T04:58:19;14.02;;;2.10;;
70725;SDS011;58304;53.104;6.022;2022-08-01T05:00:47;9.82;;;1.80;;
70725;SDS011;58304;53.104;6.022;2022-08-01T05:03:13;12.65;;;2.00;;
70725;SDS011;58304;53.104;6.022;2022-08-01T05:05:39;10.55;;;1.67;;
70725;SDS011;58304;53.104;6.022;2022-08-01T05:08:04;9.13;;;2.00;;
70725;SDS011;58304;53.104;6.022;2022-08-01T05:10:31;6.95;;;1.98;;
70725;SDS011;58304;53.104;6.022;2022-08-01T05:12:58;15.55;;;2.20;;
70725;SDS011;58304;53.104;6.022;2022-08-01T05:15:23;7.10;;;1.77;;
70725;SDS011;58304;53.104;6.022;2022-08-01T05:17:49;10.80;;;1.75;;
70725;SDS011;58304;53.104;6.022;2022-08-01T05:20:15;9.57;;;2.10;;
70725;SDS011;58304;53.104;6.022;2022-08-01T05:22:41;8.25;;;1.98;;
70725;SDS011;58304;53.104;6.022;2022-08-01T05:25:07;10.93;;;1.98;;
70725;SDS011;58304;53.104;6.022;2022-08-01T05:27:33;11.27;;;2.10;;
70725;SDS011;58304;53.104;6.022;2022-08-01T05:30:04;7.55;;;2.00;;
70725;SDS011;58304;53.104;6.022;2022-08-01T05:32:31;10.10;;;2.30;;
70725;SDS011;58304;53.104;6.022;2022-08-01T05:34:57;8.65;;;2.10;;
70725;SDS011;58304;53.104;6.022;2022-08-01T05:37:23;12.55;;;2.10;;
70725;SDS011;58304;53.104;6.022;2022-08-01T05:39:48;10.95;;;2.50;;
70725;SDS011;58304;53.104;6.022;2022-08-01T05:42:14;13.07;;;2.08;;
70725;SDS011;58304;53.104;6.022;2022-08-01T05:44:39;8.80;;;2.25;;
70725;SDS011;58304;53.104;6.022;2022-08-01T05:47:05;11.73;;;2.35;;
70725;SDS011;58304;53.104;6.022;2022-08-01T05:49:30;8.48;;;2.00;;
70725;SDS011;58304;53.104;6.022;2022-08-01T05:51:56;12.93;;;2.30;;
70725;SDS011;58304;53.104;6.022;2022-08-01T05:54:22;9.10;;;2.20;;
70725;SDS011;58304;53.104;6.022;2022-08-01T05:56:48;11.48;;;2.10;;
70725;SDS011;58304;53.104;6.022;2022-08-01T05:59:14;8.93;;;2.08;;
70725;SDS011;58304;53.104;6.022;2022-08-01T06:01:40;7.18;;;1.77;;
70725;SDS011;58304;53.104;6.022;2022-08-01T06:04:05;9.68;;;2.20;;
70725;SDS011;58304;53.104;6.022;2022-08-01T06:06:31;7.55;;;1.98;;
70725;SDS011;58304;53.104;6.022;2022-08-01T06:08:57;7.55;;;2.00;;
70725;SDS011;58304;53.104;6.022;2022-08-01T06:11:22;13.68;;;2.08;;
70725;SDS011;58304;53.104;6.022;2022-08-01T06:13:48;11.93;;;2.28;;
70725;SDS011;58304;53.104;6.022;2022-08-01T06:16:13;9.00;;;2.00;;
70725;SDS011;58304;53.104;6.022;2022-08-01T06:18:39;12.65;;;2.28;;
70725;SDS011;58304;53.104;6.022;2022-08-01T06:21:05;10.40;;;2.22;;
70725;SDS011;58304;53.104;6.022;2022-08-01T06:23:30;14.32;;;2.72;;
70725;SDS011;58304;53.104;6.022;2022-08-01T06:25:56;9.73;;;2.30;;
70725;SDS011;58304;53.104;6.022;2022-08-01T06:28:23;11.65;;;2.28;;
70725;SDS011;58304;53.104;6.022;2022-08-01T06:30:49;10.95;;;2.35;;
70725;SDS011;58304;53.104;6.022;2022-08-01T06:33:14;7.80;;;1.88;;
70725;SDS011;58304;53.104;6.022;2022-08-01T06:56:58;11.38;;;2.30;;
70725;SDS011;58304;53.104;6.022;2022-08-01T06:59:24;11.10;;;2.35;;
70725;SDS011;58304;53.104;6.022;2022-08-01T07:01:49;10.88;;;2.17;;
70725;SDS011;58304;53.104;6.022;2022-08-01T07:04:21;8.15;;;1.70;;
70725;SDS011;58304;53.104;6.022;2022-08-01T07:06:52;16.55;;;2.42;;
70725;SDS011;58304;53.104;6.022;2022-08-01T08:00:02;6.45;;;1.50;;
70725;SDS011;58304;53.104;6.022;2022-08-01T08:02:30;8.05;;;1.95;;
70725;SDS011;58304;53.104;6.022;2022-08-01T08:04:59;6.80;;;1.30;;
70725;SDS011;58304;53.104;6.022;2022-08-01T08:16:27;6.55;;;1.40;;
70725;SDS011;58304;53.104;6.022;2022-08-01T08:18:53;8.20;;;1.40;;
70725;SDS011;58304;53.104;6.022;2022-08-01T08:25:36;10.23;;;1.55;;
70725;SDS011;58304;53.104;6.022;2022-08-01T08:28:10;6.72;;;1.63;;
70725;SDS011;58304;53.104;6.022;2022-08-01T08:31:12;10.35;;;1.60;;
70725;SDS011;58304;53.104;6.022;2022-08-01T08:36:23;7.53;;;1.17;;
70725;SDS011;58304;53.104;6.022;2022-08-01T08:39:02;7.20;;;1.50;;
70725;SDS011;58304;53.104;6.022;2022-08-01T08:41:38;6.30;;;1.50;;
70725;SDS011;58304;53.104;6.022;2022-08-01T08:44:16;9.43;;;1.63;;
70725;SDS011;58304;53.104;6.022;2022-08-01T08:49:27;8.13;;;1.30;;
70725;SDS011;58304;53.104;6.022;2022-08-01T08:55:29;7.10;;;1.40;;
70725;SDS011;58304;53.104;6.022;2022-08-01T08:58:38;7.25;;;1.60;;
70725;SDS011;58304;53.104;6.022;2022-08-01T09:01:20;6.15;;;1.42;;
70725;SDS011;58304;53.104;6.022;2022-08-01T09:04:00;5.13;;;1.27;;
70725;SDS011;58304;53.104;6.022;2022-08-01T09:06:31;48.38;;;3.60;;
70725;SDS011;58304;53.104;6.022;2022-08-01T09:09:08;8.48;;;1.30;;
70725;SDS011;58304;53.104;6.022;2022-08-01T09:12:25;7.90;;;1.55;;
70725;SDS011;58304;53.104;6.022;2022-08-01T09:14:56;9.38;;;1.50;;
70725;SDS011;58304;53.104;6.022;2022-08-01T09:17:22;13.38;;;1.70;;
70725;SDS011;58304;53.104;6.022;2022-08-01T09:19:52;9.05;;;1.80;;
70725;SDS011;58304;53.104;6.022;2022-08-01T09:22:21;7.70;;;1.30;;
70725;SDS011;58304;53.104;6.022;2022-08-01T09:25:05;7.20;;;1.20;;
70725;SDS011;58304;53.104;6.022;2022-08-01T09:27:38;5.90;;;1.17;;
70725;SDS011;58304;53.104;6.022;2022-08-01T09:30:17;8.63;;;1.55;;
70725;SDS011;58304;53.104;6.022;2022-08-01T09:32:54;6.47;;;1.30;;
70725;SDS011;58304;53.104;6.022;2022-08-01T09:35:30;7.25;;;1.27;;
70725;SDS011;58304;53.104;6.022;2022-08-01T09:38:13;4.65;;;1.20;;
70725;SDS011;58304;53.104;6.022;2022-08-01T09:40:51;7.70;;;1.42;;
70725;SDS011;58304;53.104;6.022;2022-08-01T09:43:19;8.75;;;1.27;;
70725;SDS011;58304;53.104;6.022;2022-08-01T09:45:46;5.38;;;1.30;;
70725;SDS011;58304;53.104;6.022;2022-08-01T09:48:14;6.20;;;1.35;;
70725;SDS011;58304;53.104;6.022;2022-08-01T09:51:02;8.55;;;1.27;;
70725;SDS011;58304;53.104;6.022;2022-08-01T09:53:46;4.97;;;1.10;;
70725;SDS011;58304;53.104;6.022;2022-08-01T09:56:13;9.82;;;1.63;;
70725;SDS011;58304;53.104;6.022;2022-08-01T09:58:52;6.55;;;1.30;;
70725;SDS011;58304;53.104;6.022;2022-08-01T10:01:21;6.65;;;1.30;;
70725;SDS011;58304;53.104;6.022;2022-08-01T10:04:03;6.15;;;1.30;;
70725;SDS011;58304;53.104;6.022;2022-08-01T10:06:44;5.30;;;1.20;;
70725;SDS011;58304;53.104;6.022;2022-08-01T10:09:14;5.07;;;1.30;;
70725;SDS011;58304;53.104;6.022;2022-08-01T10:11:53;5.55;;;1.30;;
70725;SDS011;58304;53.104;6.022;2022-08-01T10:14:28;7.47;;;1.43;;
70725;SDS011;58304;53.104;6.022;2022-08-01T10:16:58;6.82;;;1.45;;
70725;SDS011;58304;53.104;6.022;2022-08-01T10:23:30;7.05;;;1.25;;
70725;SDS011;58304;53.104;6.022;2022-08-01T10:26:17;5.20;;;1.25;;
70725;SDS011;58304;53.104;6.022;2022-08-01T10:28:47;5.40;;;1.40;;
70725;SDS011;58304;53.104;6.022;2022-08-01T10:31:38;5.95;;;1.10;;
70725;SDS011;58304;53.104;6.022;2022-08-01T10:34:04;7.00;;;1.52;;
70725;SDS011;58304;53.104;6.022;2022-08-01T10:36:32;3.80;;;0.93;;
70725;SDS011;58304;53.104;6.022;2022-08-01T10:39:01;5.97;;;1.15;;
70725;SDS011;58304;53.104;6.022;2022-08-01T10:41:27;5.95;;;1.13;;
70725;SDS011;58304;53.104;6.022;2022-08-01T10:43:54;5.85;;;1.35;;
70725;SDS011;58304;53.104;6.022;2022-08-01T10:46:20;5.63;;;1.20;;
70725;SDS011;58304;53.104;6.022;2022-08-01T10:48:55;5.18;;;1.17;;
70725;SDS011;58304;53.104;6.022;2022-08-01T10:51:27;6.40;;;1.20;;
70725;SDS011;58304;53.104;6.022;2022-08-01T10:53:53;8.70;;;1.15;;
70725;SDS011;58304;53.104;6.022;2022-08-01T10:56:20;4.07;;;1.00;;
70725;SDS011;58304;53.104;6.022;2022-08-01T10:58:48;7.20;;;1.33;;
70725;SDS011;58304;53.104;6.022;2022-08-01T11:01:21;5.07;;;1.08;;
70725;SDS011;58304;53.104;6.022;2022-08-01T11:07:51;5.53;;;1.08;;
70725;SDS011;58304;53.104;6.022;2022-08-01T11:10:25;3.47;;;0.73;;
70725;SDS011;58304;53.104;6.022;2022-08-01T11:13:03;5.05;;;1.02;;
70725;SDS011;58304;53.104;6.022;2022-08-01T11:15:32;6.47;;;1.20;;
70725;SDS011;58304;53.104;6.022;2022-08-01T11:18:33;5.65;;;1.00;;
70725;SDS011;58304;53.104;6.022;2022-08-01T11:21:00;6.95;;;1.10;;
70725;SDS011;58304;53.104;6.022;2022-08-01T11:23:53;6.47;;;1.00;;
70725;SDS011;58304;53.104;6.022;2022-08-01T11:26:27;4.90;;;0.85;;
70725;SDS011;58304;53.104;6.022;2022-08-01T11:29:13;4.90;;;1.25;;
70725;SDS011;58304;53.104;6.022;2022-08-01T11:31:45;6.28;;;1.15;;
70725;SDS011;58304;53.104;6.022;2022-08-01T11:34:51;2.80;;;0.93;;
70725;SDS011;58304;53.104;6.022;2022-08-01T11:56:12;3.83;;;1.00;;
70725;SDS011;58304;53.104;6.022;2022-08-01T11:58:38;7.10;;;1.10;;
70725;SDS011;58304;53.104;6.022;2022-08-01T12:01:06;4.90;;;1.13;;
70725;SDS011;58304;53.104;6.022;2022-08-01T12:03:37;4.90;;;1.10;;
70725;SDS011;58304;53.104;6.022;2022-08-01T12:06:09;5.35;;;1.27;;
70725;SDS011;58304;53.104;6.022;2022-08-01T12:08:38;5.03;;;1.00;;
70725;SDS011;58304;53.104;6.022;2022-08-01T12:11:39;7.35;;;1.08;;
70725;SDS011;58304;53.104;6.022;2022-08-01T12:16:57;5.57;;;1.30;;
70725;SDS011;58304;53.104;6.022;2022-08-01T12:19:32;5.45;;;1.08;;
70725;SDS011;58304;53.104;6.022;2022-08-01T12:22:13;6.63;;;1.20;;
70725;SDS011;58304;53.104;6.022;2022-08-01T12:26:04;4.57;;;1.20;;
70725;SDS011;58304;53.104;6.022;2022-08-01T12:28:30;3.38;;;0.80;;
70725;SDS011;58304;53.104;6.022;2022-08-01T12:31:10;6.50;;;1.10;;
70725;SDS011;58304;53.104;6.022;2022-08-01T12:33:37;6.25;;;1.10;;
70725;SDS011;58304;53.104;6.022;2022-08-01T12:39:05;4.60;;;1.20;;
70725;SDS011;58304;53.104;6.022;2022-08-01T12:41:56;4.13;;;1.00;;
70725;SDS011;58304;53.104;6.022;2022-08-01T12:52:43;3.22;;;0.90;;
70725;SDS011;58304;53.104;6.022;2022-08-01T12:55:22;3.95;;;1.13;;
70725;SDS011;58304;53.104;6.022;2022-08-01T12:58:04;6.43;;;1.20;;
70725;SDS011;58304;53.104;6.022;2022-08-01T13:00:30;4.50;;;0.82;;
70725;SDS011;58304;53.104;6.022;2022-08-01T13:09:29;3.65;;;1.10;;
70725;SDS011;58304;53.104;6.022;2022-08-01T13:11:57;9.48;;;1.10;;
70725;SDS011;58304;53.104;6.022;2022-08-01T13:14:32;3.35;;;0.93;;
70725;SDS011;58304;53.104;6.022;2022-08-01T13:16:58;5.35;;;0.90;;
70725;SDS011;58304;53.104;6.022;2022-08-01T13:22:06;5.60;;;1.05;;
70725;SDS011;58304;53.104;6.022;2022-08-01T13:25:46;4.28;;;1.00;;
70725;SDS011;58304;53.104;6.022;2022-08-01T13:28:42;5.13;;;1.20;;
70725;SDS011;58304;53.104;6.022;2022-08-01T13:31:45;4.13;;;1.00;;
70725;SDS011;58304;53.104;6.022;2022-08-01T13:34:11;6.78;;;1.08;;
70725;SDS011;58304;53.104;6.022;2022-08-01T13:36:39;5.53;;;1.02;;
70725;SDS011;58304;53.104;6.022;2022-08-01T13:39:21;4.63;;;1.00;;
70725;SDS011;58304;53.104;6.022;2022-08-01T13:44:31;5.85;;;0.90;;
70725;SDS011;58304;53.104;6.022;2022-08-01T13:46:57;5.40;;;1.13;;
70725;SDS011;58304;53.104;6.022;2022-08-01T13:49:23;4.47;;;0.98;;
70725;SDS011;58304;53.104;6.022;2022-08-01T13:51:48;5.20;;;1.05;;
70725;SDS011;58304;53.104;6.022;2022-08-01T13:54:15;4.22;;;1.08;;
70725;SDS011;58304;53.104;6.022;2022-08-01T14:00:22;5.47;;;1.00;;
70725;SDS011;58304;53.104;6.022;2022-08-01T14:02:48;5.65;;;1.17;;
70725;SDS011;58304;53.104;6.022;2022-08-01T14:05:14;3.45;;;0.90;;
70725;SDS011;58304;53.104;6.022;2022-08-01T14:07:39;6.07;;;1.20;;
70725;SDS011;58304;53.104;6.022;2022-08-01T14:10:05;3.75;;;0.95;;
70725;SDS011;58304;53.104;6.022;2022-08-01T14:12:31;4.90;;;1.10;;
70725;SDS011;58304;53.104;6.022;2022-08-01T14:14:56;3.22;;;0.95;;
70725;SDS011;58304;53.104;6.022;2022-08-01T14:17:22;4.00;;;1.05;;
70725;SDS011;58304;53.104;6.022;2022-08-01T14:19:48;3.80;;;1.05;;
70725;SDS011;58304;53.104;6.022;2022-08-01T14:22:13;5.93;;;0.90;;
70725;SDS011;58304;53.104;6.022;2022-08-01T14:24:42;6.13;;;1.20;;
70725;SDS011;58304;53.104;6.022;2022-08-01T14:27:07;6.00;;;1.08;;
70725;SDS011;58304;53.104;6.022;2022-08-01T14:29:33;9.88;;;1.10;;
70725;SDS011;58304;53.104;6.022;2022-08-01T14:32:01;4.13;;;0.90;;
70725;SDS011;58304;53.104;6.022;2022-08-01T14:34:28;6.05;;;1.10;;
70725;SDS011;58304;53.104;6.022;2022-08-01T14:37:16;6.47;;;1.20;;
70725;SDS011;58304;53.104;6.022;2022-08-01T14:39:42;5.55;;;1.10;;
70725;SDS011;58304;53.104;6.022;2022-08-01T14:42:07;4.60;;;1.00;;
70725;SDS011;58304;53.104;6.022;2022-08-01T14:44:33;3.40;;;1.00;;
70725;SDS011;58304;53.104;6.022;2022-08-01T14:46:59;4.35;;;1.00;;
70725;SDS011;58304;53.104;6.022;2022-08-01T14:49:24;3.60;;;0.90;;
70725;SDS011;58304;53.104;6.022;2022-08-01T14:51:50;6.90;;;1.17;;
70725;SDS011;58304;53.104;6.022;2022-08-01T14:54:20;6.57;;;1.15;;
70725;SDS011;58304;53.104;6.022;2022-08-01T14:56:46;3.45;;;0.88;;
70725;SDS011;58304;53.104;6.022;2022-08-01T14:59:11;5.78;;;0.93;;
70725;SDS011;58304;53.104;6.022;2022-08-01T15:01:37;5.22;;;1.02;;
70725;SDS011;58304;53.104;6.022;2022-08-01T15:04:03;3.58;;;1.02;;
70725;SDS011;58304;53.104;6.022;2022-08-01T15:06:29;4.13;;;1.10;;
70725;SDS011;58304;53.104;6.022;2022-08-01T15:08:55;3.33;;;0.98;;
70725;SDS011;58304;53.104;6.022;2022-08-01T15:11:21;2.60;;;0.70;;
70725;SDS011;58304;53.104;6.022;2022-08-01T15:13:49;5.97;;;1.13;;
70725;SDS011;58304;53.104;6.022;2022-08-01T15:16:35;5.18;;;0.90;;
70725;SDS011;58304;53.104;6.022;2022-08-01T15:19:03;5.85;;;1.00;;
70725;SDS011;58304;53.104;6.022;2022-08-01T15:21:29;5.63;;;0.90;;
70725;SDS011;58304;53.104;6.022;2022-08-01T15:23:54;4.40;;;0.80;;
70725;SDS011;58304;53.104;6.022;2022-08-01T15:26:20;4.72;;;0.95;;
70725;SDS011;58304;53.104;6.022;2022-08-01T15:28:46;3.28;;;0.80;;
70725;SDS011;58304;53.104;6.022;2022-08-01T15:31:12;5.88;;;1.00;;
70725;SDS011;58304;53.104;6.022;2022-08-01T15:33:39;3.50;;;0.80;;
70725;SDS011;58304;53.104;6.022;2022-08-01T15:36:04;5.57;;;0.95;;
70725;SDS011;58304;53.104;6.022;2022-08-01T15:38:30;4.10;;;0.90;;
70725;SDS011;58304;53.104;6.022;2022-08-01T15:40:56;3.58;;;0.90;;
70725;SDS011;58304;53.104;6.022;2022-08-01T15:43:22;1.95;;;0.80;;
70725;SDS011;58304;53.104;6.022;2022-08-01T15:45:47;4.63;;;0.90;;
70725;SDS011;58304;53.104;6.022;2022-08-01T15:48:13;2.65;;;0.77;;
70725;SDS011;58304;53.104;6.022;2022-08-01T15:50:40;4.40;;;0.80;;
70725;SDS011;58304;53.104;6.022;2022-08-01T15:53:05;3.42;;;0.90;;
70725;SDS011;58304;53.104;6.022;2022-08-01T15:55:31;5.38;;;1.17;;
70725;SDS011;58304;53.104;6.022;2022-08-01T15:57:59;4.80;;;1.10;;
70725;SDS011;58304;53.104;6.022;2022-08-01T16:00:25;8.38;;;1.35;;
70725;SDS011;58304;53.104;6.022;2022-08-01T16:02:51;5.18;;;1.20;;
70725;SDS011;58304;53.104;6.022;2022-08-01T16:05:20;5.43;;;1.02;;
70725;SDS011;58304;53.104;6.022;2022-08-01T16:07:45;5.22;;;1.10;;
70725;SDS011;58304;53.104;6.022;2022-08-01T16:10:11;5.95;;;0.88;;
70725;SDS011;58304;53.104;6.022;2022-08-01T16:12:37;4.88;;;1.10;;
70725;SDS011;58304;53.104;6.022;2022-08-01T16:15:03;6.35;;;1.10;;
70725;SDS011;58304;53.104;6.022;2022-08-01T16:17:29;4.15;;;1.17;;
70725;SDS011;58304;53.104;6.022;2022-08-01T16:19:54;5.45;;;1.00;;
70725;SDS011;58304;53.104;6.022;2022-08-01T16:22:20;5.07;;;1.05;;
70725;SDS011;58304;53.104;6.022;2022-08-01T16:24:46;6.85;;;1.27;;
70725;SDS011;58304;53.104;6.022;2022-08-01T16:27:11;5.80;;;1.25;;
70725;SDS011;58304;53.104;6.022;2022-08-01T16:29:37;3.78;;;1.20;;
70725;SDS011;58304;53.104;6.022;2022-08-01T16:32:03;4.00;;;1.00;;
70725;SDS011;58304;53.104;6.022;2022-08-01T16:34:29;4.93;;;1.13;;
70725;SDS011;58304;53.104;6.022;2022-08-01T16:36:56;4.20;;;1.00;;
70725;SDS011;58304;53.104;6.022;2022-08-01T16:39:22;4.75;;;1.30;;
70725;SDS011;58304;53.104;6.022;2022-08-01T16:41:51;7.90;;;1.30;;
70725;SDS011;58304;53.104;6.022;2022-08-01T16:44:17;5.47;;;1.10;;
70725;SDS011;58304;53.104;6.022;2022-08-01T16:46:42;8.10;;;1.17;;
70725;SDS011;58304;53.104;6.022;2022-08-01T16:49:08;5.60;;;1.10;;
70725;SDS011;58304;53.104;6.022;2022-08-01T16:51:34;5.95;;;1.35;;
70725;SDS011;58304;53.104;6.022;2022-08-01T16:54:00;6.18;;;1.20;;
70725;SDS011;58304;53.104;6.022;2022-08-01T16:56:26;5.65;;;1.05;;
70725;SDS011;58304;53.104;6.022;2022-08-01T16:58:51;6.22;;;1.10;;
70725;SDS011;58304;53.104;6.022;2022-08-01T17:01:17;6.00;;;1.25;;
70725;SDS011;58304;53.104;6.022;2022-08-01T17:03:43;3.50;;;1.05;;
70725;SDS011;58304;53.104;6.022;2022-08-01T17:06:09;5.30;;;0.90;;
70725;SDS011;58304;53.104;6.022;2022-08-01T17:08:35;3.55;;;0.98;;
70725;SDS011;58304;53.104;6.022;2022-08-01T17:11:01;4.82;;;1.10;;
70725;SDS011;58304;53.104;6.022;2022-08-01T17:13:27;4.15;;;1.08;;
70725;SDS011;58304;53.104;6.022;2022-08-01T17:15:53;5.78;;;1.00;;
70725;SDS011;58304;53.104;6.022;2022-08-01T17:18:18;3.13;;;0.80;;
70725;SDS011;58304;53.104;6.022;2022-08-01T17:20:47;5.63;;;1.30;;
70725;SDS011;58304;53.104;6.022;2022-08-01T17:23:14;4.72;;;1.50;;
70725;SDS011;58304;53.104;6.022;2022-08-01T17:25:56;4.55;;;1.00;;
70725;SDS011;58304;53.104;6.022;2022-08-01T17:28:22;5.55;;;1.00;;
70725;SDS011;58304;53.104;6.022;2022-08-01T17:30:50;6.60;;;1.13;;
70725;SDS011;58304;53.104;6.022;2022-08-01T17:33:15;7.50;;;1.15;;
70725;SDS011;58304;53.104;6.022;2022-08-01T17:35:44;4.47;;;1.13;;
70725;SDS011;58304;53.104;6.022;2022-08-01T17:38:10;6.40;;;1.15;;
70725;SDS011;58304;53.104;6.022;2022-08-01T17:40:35;5.85;;;1.30;;
70725;SDS011;58304;53.104;6.022;2022-08-01T17:43:03;3.10;;;1.05;;
70725;SDS011;58304;53.104;6.022;2022-08-01T17:45:29;5.15;;;1.00;;